Time;durP1;ratioP1;P1;durP2;ratioP2;P2;SDS_P1;SDS_P2;PMS_P1;PMS_P2;Temp;Humidity;BMP_temperature;BMP_pressure;BME280_temperature;BME280_humidity;BME280_pressure;Samples;Min_cycle;Max_cycle;Signal;HPM_P1;HPM_P2
2021/04/19 00:01:17;;;;;;;0.10;0.10;;;;;;;;;;5056482;28;20013;-65
2021/04/19 00:03:42;;;;;;;0.10;0.10;;;;;;;;;;5063575;28;20107;-65
2021/04/19 00:06:07;;;;;;;0.10;0.10;;;;;;;;;;5054649;28;20024;-65
2021/04/19 00:08:32;;;;;;;0.10;0.10;;;;;;;;;;5059384;28;20286;-65
2021/04/19 00:10:58;;;;;;;0.10;0.10;;;;;;;;;;5041279;28;20274;-65
2021/04/19 00:13:23;;;;;;;0.10;0.10;;;;;;;;;;5043970;28;20319;-66
2021/04/19 00:15:48;;;;;;;0.10;0.10;;;;;;;;;;5061711;28;20297;-65
2021/04/19 00:18:13;;;;;;;0.10;0.10;;;;;;;;;;5038969;28;20016;-65
2021/04/19 00:20:39;;;;;;;0.10;0.10;;;;;;;;;;5055596;28;20116;-66
2021/04/19 00:23:04;;;;;;;0.10;0.10;;;;;;;;;;5064319;28;20274;-65
2021/04/19 00:25:29;;;;;;;0.10;0.10;;;;;;;;;;5043375;28;20274;-65
2021/04/19 00:27:54;;;;;;;0.10;0.10;;;;;;;;;;5044302;28;20389;-65
2021/04/19 00:30:20;;;;;;;0.10;0.10;;;;;;;;;;5064321;28;20058;-66
2021/04/19 00:32:47;;;;;;;0.10;0.10;;;;;;;;;;5068808;28;21538;-65
2021/04/19 00:35:12;;;;;;;0.10;0.10;;;;;;;;;;5058199;28;20025;-66
2021/04/19 00:37:37;;;;;;;0.13;0.13;;;;;;;;;;5059952;28;20058;-66
2021/04/19 00:40:10;;;;;;;0.10;0.10;;;;;;;;;;5041298;28;20099;-67
2021/04/19 00:42:35;;;;;;;0.10;0.10;;;;;;;;;;5060968;28;20016;-66
2021/04/19 00:45:00;;;;;;;0.10;0.10;;;;;;;;;;5059480;28;20058;-66
2021/04/19 00:47:25;;;;;;;0.10;0.10;;;;;;;;;;5045795;28;20059;-66
2021/04/19 00:49:50;;;;;;;0.10;0.10;;;;;;;;;;5042577;28;21063;-66
2021/04/19 00:52:16;;;;;;;0.10;0.10;;;;;;;;;;5059488;28;20266;-66
2021/04/19 00:54:41;;;;;;;0.10;0.10;;;;;;;;;;5043766;28;20309;-66
2021/04/19 00:57:06;;;;;;;0.10;0.10;;;;;;;;;;5059815;28;20020;-65
2021/04/19 00:59:32;;;;;;;0.10;0.10;;;;;;;;;;5059157;28;20021;-65
2021/04/19 01:01:57;;;;;;;0.10;0.10;;;;;;;;;;5035964;28;20023;-65
2021/04/19 01:04:22;;;;;;;0.10;0.10;;;;;;;;;;5041792;28;20048;-66
2021/04/19 01:06:48;;;;;;;0.10;0.10;;;;;;;;;;5042078;28;20032;-66
2021/04/19 01:09:13;;;;;;;0.10;0.10;;;;;;;;;;5042894;28;20056;-65
2021/04/19 01:11:38;;;;;;;0.10;0.10;;;;;;;;;;5041348;28;20050;-65
2021/04/19 01:14:03;;;;;;;0.10;0.10;;;;;;;;;;5038707;28;20288;-65
2021/04/19 01:16:29;;;;;;;0.10;0.10;;;;;;;;;;5058480;28;20367;-65
2021/04/19 01:18:54;;;;;;;0.10;0.10;;;;;;;;;;5040726;28;20025;-65
2021/04/19 01:21:19;;;;;;;0.10;0.10;;;;;;;;;;5042320;28;20430;-65
2021/04/19 01:23:44;;;;;;;0.10;0.10;;;;;;;;;;5059553;28;20274;-65
2021/04/19 01:26:09;;;;;;;0.10;0.10;;;;;;;;;;5042050;28;20028;-65
2021/04/19 01:28:35;;;;;;;0.10;0.10;;;;;;;;;;5040022;28;20123;-65
2021/04/19 01:31:00;;;;;;;0.10;0.10;;;;;;;;;;5054083;28;20068;-65
2021/04/19 01:33:25;;;;;;;0.10;0.10;;;;;;;;;;5060917;28;20032;-65
2021/04/19 01:35:50;;;;;;;0.10;0.10;;;;;;;;;;5055340;28;20330;-65
2021/04/19 01:38:17;;;;;;;0.10;0.10;;;;;;;;;;5042855;28;20017;-65
2021/04/19 01:40:42;;;;;;;0.10;0.10;;;;;;;;;;5054949;28;20013;-66
2021/04/19 01:43:07;;;;;;;0.10;0.10;;;;;;;;;;5058149;28;20484;-65
2021/04/19 01:45:32;;;;;;;0.20;0.20;;;;;;;;;;5058444;28;20557;-65
2021/04/19 01:47:58;;;;;;;0.10;0.10;;;;;;;;;;5041114;28;20283;-65
2021/04/19 01:50:24;;;;;;;0.20;0.20;;;;;;;;;;5057997;28;20017;-65
2021/04/19 01:52:49;;;;;;;0.10;0.10;;;;;;;;;;5055235;28;20115;-65
2021/04/19 01:55:18;;;;;;;0.20;0.20;;;;;;;;;;5044633;28;20035;-65
2021/04/19 01:57:44;;;;;;;0.13;0.13;;;;;;;;;;5037866;28;20691;-65
2021/04/19 02:00:10;;;;;;;0.20;0.20;;;;;;;;;;5055500;28;20028;-66
2021/04/19 02:02:37;;;;;;;0.10;0.10;;;;;;;;;;5058009;28;20031;-66
2021/04/19 02:05:02;;;;;;;0.10;0.10;;;;;;;;;;5045547;28;20024;-65
2021/04/19 02:07:33;;;;;;;0.10;0.10;;;;;;;;;;5060317;28;20017;-65
2021/04/19 02:10:05;;;;;;;0.10;0.10;;;;;;;;;;5061157;28;20048;-65
2021/04/19 02:12:49;;;;;;;0.10;0.10;;;;;;;;;;5059307;28;20059;-66
2021/04/19 02:15:15;;;;;;;0.10;0.10;;;;;;;;;;5062607;28;20052;-66
2021/04/19 02:17:43;;;;;;;0.10;0.10;;;;;;;;;;5067531;28;20040;-66
2021/04/19 02:20:31;;;;;;;0.10;0.10;;;;;;;;;;5061158;28;20787;-66
2021/04/19 02:22:57;;;;;;;0.10;0.10;;;;;;;;;;5062322;28;20051;-66
2021/04/19 02:25:23;;;;;;;0.10;0.10;;;;;;;;;;5063367;28;20032;-65
2021/04/19 02:27:57;;;;;;;0.10;0.10;;;;;;;;;;5066486;28;20020;-65
2021/04/19 02:30:22;;;;;;;0.10;0.10;;;;;;;;;;5043336;28;20523;-65
2021/04/19 02:32:51;;;;;;;0.10;0.10;;;;;;;;;;5062402;28;20031;-65
2021/04/19 02:35:17;;;;;;;0.10;0.10;;;;;;;;;;5065969;28;20275;-65
2021/04/19 02:37:43;;;;;;;0.10;0.10;;;;;;;;;;5063326;28;20020;-65
2021/04/19 02:40:08;;;;;;;0.10;0.10;;;;;;;;;;5049340;28;20027;-65
2021/04/19 02:42:34;;;;;;;0.10;0.10;;;;;;;;;;5065715;28;20039;-65
2021/04/19 02:45:00;;;;;;;0.10;0.10;;;;;;;;;;5063239;28;20094;-65
2021/04/19 02:47:25;;;;;;;0.10;0.10;;;;;;;;;;5046837;28;20545;-65
2021/04/19 02:49:50;;;;;;;0.10;0.10;;;;;;;;;;5048430;28;20275;-65
2021/04/19 02:52:15;;;;;;;0.10;0.10;;;;;;;;;;5066239;28;20270;-68
2021/04/19 02:54:41;;;;;;;0.10;0.10;;;;;;;;;;5066383;28;20423;-65
2021/04/19 02:57:19;;;;;;;0.10;0.10;;;;;;;;;;5051536;28;20469;-65
2021/04/19 02:59:45;;;;;;;0.10;0.10;;;;;;;;;;5063637;28;20012;-65
2021/04/19 03:02:10;;;;;;;0.10;0.10;;;;;;;;;;5061985;28;20542;-65
2021/04/19 03:04:38;;;;;;;0.10;0.10;;;;;;;;;;5063798;28;20031;-65
2021/04/19 03:07:04;;;;;;;0.10;0.10;;;;;;;;;;5044985;28;20053;-65
2021/04/19 03:09:29;;;;;;;0.10;0.10;;;;;;;;;;5043978;28;20511;-65
2021/04/19 03:11:55;;;;;;;0.10;0.10;;;;;;;;;;5065583;28;20485;-65
2021/04/19 03:14:22;;;;;;;0.10;0.10;;;;;;;;;;5063953;28;20294;-65
2021/04/19 03:16:48;;;;;;;0.10;0.10;;;;;;;;;;5051955;28;20051;-65
2021/04/19 03:19:14;;;;;;;0.10;0.10;;;;;;;;;;5069002;28;20484;-65
2021/04/19 03:21:39;;;;;;;0.10;0.10;;;;;;;;;;5064045;28;20021;-65
2021/04/19 03:24:06;;;;;;;0.10;0.10;;;;;;;;;;5066542;28;20077;-64
2021/04/19 03:26:32;;;;;;;0.10;0.10;;;;;;;;;;5049117;28;20032;-64
2021/04/19 03:28:58;;;;;;;0.10;0.10;;;;;;;;;;5061495;28;20422;-65
2021/04/19 03:31:30;;;;;;;0.10;0.10;;;;;;;;;;5063129;28;20056;-65
2021/04/19 03:33:56;;;;;;;0.10;0.10;;;;;;;;;;5043145;28;20656;-65
2021/04/19 03:36:22;;;;;;;0.10;0.10;;;;;;;;;;5063725;28;20074;-65
2021/04/19 03:38:47;;;;;;;0.10;0.10;;;;;;;;;;5062592;28;20016;-65
2021/04/19 03:41:13;;;;;;;0.10;0.10;;;;;;;;;;5046532;28;20024;-65
2021/04/19 03:43:38;;;;;;;0.13;0.13;;;;;;;;;;5062506;28;20021;-65
2021/04/19 03:46:05;;;;;;;0.10;0.10;;;;;;;;;;5061122;28;20020;-65
2021/04/19 03:48:30;;;;;;;0.10;0.10;;;;;;;;;;5059256;28;20376;-66
2021/04/19 03:50:57;;;;;;;0.20;0.20;;;;;;;;;;5045411;28;20021;-66
2021/04/19 03:53:23;;;;;;;0.10;0.10;;;;;;;;;;5060942;28;20059;-66
2021/04/19 03:55:48;;;;;;;0.10;0.10;;;;;;;;;;5063526;28;20020;-66
2021/04/19 03:58:14;;;;;;;0.10;0.10;;;;;;;;;;5062147;28;20097;-66
2021/04/19 04:00:39;;;;;;;0.10;0.10;;;;;;;;;;5061137;28;20354;-65
2021/04/19 04:03:04;;;;;;;0.17;0.17;;;;;;;;;;5063635;28;20514;-65
2021/04/19 04:05:29;;;;;;;0.20;0.20;;;;;;;;;;5061992;28;20279;-66
2021/04/19 04:07:54;;;;;;;0.10;0.10;;;;;;;;;;5047405;28;20350;-65
2021/04/19 04:10:20;;;;;;;0.17;0.17;;;;;;;;;;5063729;28;20321;-65
2021/04/19 04:12:45;;;;;;;0.10;0.10;;;;;;;;;;5061367;28;20298;-65
2021/04/19 04:15:10;;;;;;;0.20;0.20;;;;;;;;;;5047421;28;21038;-71
2021/04/19 04:17:36;;;;;;;0.10;0.10;;;;;;;;;;5063766;28;20054;-71
2021/04/19 04:20:01;;;;;;;0.10;0.10;;;;;;;;;;5062144;28;20426;-71
2021/04/19 04:22:26;;;;;;;0.10;0.10;;;;;;;;;;5044426;28;20013;-71
2021/04/19 04:24:52;;;;;;;0.10;0.10;;;;;;;;;;5046223;28;20492;-71
2021/04/19 04:27:17;;;;;;;0.20;0.20;;;;;;;;;;5045422;28;20320;-71
2021/04/19 04:29:42;;;;;;;0.20;0.10;;;;;;;;;;5059079;28;20028;-71
2021/04/19 04:32:07;;;;;;;0.10;0.10;;;;;;;;;;5063333;28;20386;-71
2021/04/19 04:34:33;;;;;;;0.10;0.10;;;;;;;;;;5043470;28;20283;-70
2021/04/19 04:36:58;;;;;;;0.10;0.10;;;;;;;;;;5063764;28;20017;-71
2021/04/19 04:39:23;;;;;;;0.10;0.10;;;;;;;;;;5059636;28;20104;-70
2021/04/19 04:41:48;;;;;;;0.17;0.17;;;;;;;;;;5060546;28;20020;-71
2021/04/19 04:44:16;;;;;;;0.10;0.10;;;;;;;;;;5062170;28;20270;-71
2021/04/19 04:47:00;;;;;;;0.10;0.10;;;;;;;;;;5042924;28;20023;-71
2021/04/19 04:49:30;;;;;;;0.20;0.20;;;;;;;;;;5060617;28;20025;-71
2021/04/19 04:51:56;;;;;;;0.10;0.10;;;;;;;;;;5044948;28;20061;-70
2021/04/19 04:54:21;;;;;;;0.10;0.10;;;;;;;;;;5042963;28;20105;-70
2021/04/19 04:56:53;;;;;;;0.10;0.10;;;;;;;;;;5059448;28;20017;-71
2021/04/19 04:59:19;;;;;;;0.10;0.10;;;;;;;;;;5043801;28;20101;-71
2021/04/19 05:01:44;;;;;;;0.17;0.17;;;;;;;;;;5058719;28;20513;-70
2021/04/19 05:04:09;;;;;;;0.20;0.20;;;;;;;;;;5061077;28;20025;-70
2021/04/19 05:06:34;;;;;;;0.20;0.20;;;;;;;;;;5061379;28;20271;-71
2021/04/19 05:08:59;;;;;;;0.20;0.20;;;;;;;;;;5060031;28;20445;-71
2021/04/19 05:11:25;;;;;;;0.10;0.10;;;;;;;;;;5061048;28;20082;-70
2021/04/19 05:13:50;;;;;;;0.10;0.10;;;;;;;;;;5057850;28;20345;-71
2021/04/19 05:16:25;;;;;;;0.20;0.20;;;;;;;;;;5061558;28;20815;-72
2021/04/19 05:18:50;;;;;;;0.10;0.10;;;;;;;;;;5044151;28;20374;-72
2021/04/19 05:21:15;;;;;;;0.10;0.10;;;;;;;;;;5059511;28;20107;-72
2021/04/19 05:23:41;;;;;;;0.10;0.10;;;;;;;;;;5044414;28;20036;-71
2021/04/19 05:26:06;;;;;;;0.10;0.10;;;;;;;;;;5044969;28;20683;-71
2021/04/19 05:28:31;;;;;;;0.10;0.10;;;;;;;;;;5043238;28;20267;-71
2021/04/19 05:30:56;;;;;;;0.10;0.10;;;;;;;;;;5060830;28;20021;-71
2021/04/19 05:33:21;;;;;;;0.10;0.10;;;;;;;;;;5043814;28;20818;-71
2021/04/19 05:35:47;;;;;;;0.20;0.20;;;;;;;;;;5061092;28;20293;-71
2021/04/19 05:38:12;;;;;;;0.20;0.20;;;;;;;;;;5060304;28;20262;-71
2021/04/19 05:40:37;;;;;;;0.10;0.10;;;;;;;;;;5060914;28;20017;-71
2021/04/19 05:43:03;;;;;;;0.15;0.15;;;;;;;;;;5059608;28;20025;-70
2021/04/19 05:45:28;;;;;;;0.20;0.20;;;;;;;;;;5062136;28;20115;-70
2021/04/19 05:47:54;;;;;;;0.10;0.10;;;;;;;;;;5060940;28;20159;-70
2021/04/19 05:50:23;;;;;;;0.10;0.10;;;;;;;;;;5042621;28;20027;-70
2021/04/19 05:52:49;;;;;;;0.20;0.20;;;;;;;;;;5058521;28;20028;-69
2021/04/19 05:55:14;;;;;;;0.13;0.13;;;;;;;;;;5041954;28;20027;-71
2021/04/19 05:57:42;;;;;;;0.20;0.20;;;;;;;;;;5041510;28;20021;-71
2021/04/19 06:00:08;;;;;;;0.10;0.10;;;;;;;;;;5057041;28;20081;-71
2021/04/19 06:02:52;;;;;;;0.20;0.20;;;;;;;;;;5060644;28;20464;-71
2021/04/19 06:05:25;;;;;;;0.10;0.10;;;;;;;;;;5057809;28;20056;-71
2021/04/19 06:08:06;;;;;;;0.10;0.10;;;;;;;;;;5058581;28;20032;-71
2021/04/19 06:10:35;;;;;;;0.20;0.20;;;;;;;;;;5058379;28;20029;-71
2021/04/19 06:13:00;;;;;;;0.20;0.20;;;;;;;;;;5041150;28;20561;-71
2021/04/19 06:15:25;;;;;;;0.10;0.10;;;;;;;;;;5036569;28;20155;-71
2021/04/19 06:17:51;;;;;;;0.20;0.20;;;;;;;;;;5035655;28;20143;-71
2021/04/19 06:20:18;;;;;;;0.10;0.10;;;;;;;;;;5059146;28;20628;-71
2021/04/19 06:22:43;;;;;;;0.10;0.10;;;;;;;;;;5043135;28;20029;-71
2021/04/19 06:25:09;;;;;;;0.10;0.10;;;;;;;;;;5055789;28;20523;-72
2021/04/19 06:27:34;;;;;;;0.17;0.17;;;;;;;;;;5042340;28;20059;-70
2021/04/19 06:30:10;;;;;;;0.20;0.20;;;;;;;;;;5042003;28;20017;-70
2021/04/19 06:32:35;;;;;;;0.20;0.20;;;;;;;;;;5055493;28;20278;-70
2021/04/19 06:35:00;;;;;;;0.20;0.20;;;;;;;;;;5056729;28;20483;-70
2021/04/19 06:37:25;;;;;;;0.20;0.20;;;;;;;;;;5041924;28;20271;-70
2021/04/19 06:39:51;;;;;;;0.10;0.10;;;;;;;;;;5054566;28;20363;-69
2021/04/19 06:42:16;;;;;;;0.15;0.15;;;;;;;;;;5059245;28;20764;-70
2021/04/19 06:44:41;;;;;;;0.20;0.20;;;;;;;;;;5059192;28;20032;-70
2021/04/19 06:47:06;;;;;;;0.10;0.10;;;;;;;;;;5061562;28;20259;-70
2021/04/19 06:49:31;;;;;;;0.10;0.10;;;;;;;;;;5058563;28;20797;-70
2021/04/19 06:51:57;;;;;;;0.10;0.10;;;;;;;;;;5042834;28;20027;-70
2021/04/19 06:54:23;;;;;;;0.10;0.10;;;;;;;;;;5062398;28;20378;-70
2021/04/19 06:56:49;;;;;;;0.10;0.10;;;;;;;;;;5061151;28;20020;-70
2021/04/19 06:59:15;;;;;;;0.10;0.10;;;;;;;;;;5054826;28;20063;-70
2021/04/19 07:01:40;;;;;;;0.20;0.20;;;;;;;;;;5061598;28;20420;-70
2021/04/19 07:04:08;;;;;;;0.10;0.10;;;;;;;;;;5047991;28;20021;-70
2021/04/19 07:06:33;;;;;;;0.10;0.10;;;;;;;;;;5045097;28;20143;-69
2021/04/19 07:09:02;;;;;;;0.10;0.10;;;;;;;;;;5058467;28;20104;-70
2021/04/19 07:11:28;;;;;;;0.10;0.10;;;;;;;;;;5042046;28;20053;-70
2021/04/19 07:13:53;;;;;;;0.20;0.20;;;;;;;;;;5048755;28;20059;-70
2021/04/19 07:16:19;;;;;;;0.10;0.10;;;;;;;;;;5061218;28;20024;-70
2021/04/19 07:18:44;;;;;;;0.10;0.10;;;;;;;;;;5044530;28;20389;-70
2021/04/19 07:21:10;;;;;;;0.10;0.10;;;;;;;;;;5048324;28;20475;-69
2021/04/19 07:23:38;;;;;;;0.10;0.10;;;;;;;;;;5047782;28;20102;-69
2021/04/19 07:26:04;;;;;;;0.10;0.10;;;;;;;;;;5060554;28;20155;-70
2021/04/19 07:28:35;;;;;;;0.10;0.10;;;;;;;;;;5055775;28;20021;-70
2021/04/19 07:31:01;;;;;;;0.10;0.10;;;;;;;;;;5043406;28;20385;-70
2021/04/19 07:33:26;;;;;;;0.10;0.10;;;;;;;;;;5060575;28;20029;-70
2021/04/19 07:35:51;;;;;;;0.10;0.10;;;;;;;;;;5060226;28;20070;-69
2021/04/19 07:38:16;;;;;;;0.10;0.10;;;;;;;;;;5062534;28;20095;-70
2021/04/19 07:40:43;;;;;;;0.10;0.10;;;;;;;;;;5040921;28;20071;-70
2021/04/19 07:43:20;;;;;;;0.10;0.10;;;;;;;;;;5058484;28;20298;-70
2021/04/19 07:46:01;;;;;;;0.10;0.10;;;;;;;;;;5060819;28;20027;-69
2021/04/19 07:48:33;;;;;;;0.10;0.10;;;;;;;;;;5064778;28;20541;-69
2021/04/19 07:50:58;;;;;;;0.10;0.10;;;;;;;;;;5057231;28;20033;-69
2021/04/19 07:53:23;;;;;;;0.10;0.10;;;;;;;;;;5052491;28;20071;-69
2021/04/19 07:55:52;;;;;;;0.10;0.10;;;;;;;;;;5055212;28;20025;-69
2021/04/19 07:58:21;;;;;;;0.00;0.00;;;;;;;;;;5055139;28;21447;-69
2021/04/19 08:00:46;;;;;;;0.10;0.10;;;;;;;;;;5059997;28;20378;-69
2021/04/19 08:03:16;;;;;;;0.10;0.10;;;;;;;;;;5044455;28;20119;-69
2021/04/19 08:05:41;;;;;;;0.10;0.10;;;;;;;;;;5053277;28;20098;-70
2021/04/19 08:08:07;;;;;;;0.00;0.00;;;;;;;;;;5057078;28;20021;-69
2021/04/19 08:10:32;;;;;;;0.10;0.10;;;;;;;;;;5055474;28;20055;-69
2021/04/19 08:13:01;;;;;;;0.10;0.10;;;;;;;;;;5053417;28;20048;-69
2021/04/19 08:15:26;;;;;;;0.00;0.00;;;;;;;;;;5042864;28;20419;-70
2021/04/19 08:17:58;;;;;;;0.10;0.10;;;;;;;;;;5040753;28;20019;-70
2021/04/19 08:20:23;;;;;;;0.10;0.10;;;;;;;;;;5057667;28;20723;-70
2021/04/19 08:22:48;;;;;;;0.10;0.10;;;;;;;;;;5041682;28;20075;-70
2021/04/19 08:25:17;;;;;;;0.10;0.10;;;;;;;;;;5041537;28;20385;-70
2021/04/19 08:27:42;;;;;;;0.10;0.10;;;;;;;;;;5059026;28;20267;-71
2021/04/19 08:30:08;;;;;;;0.10;0.10;;;;;;;;;;5058656;28;20449;-71
2021/04/19 08:32:36;;;;;;;0.10;0.10;;;;;;;;;;5056191;28;20013;-71
2021/04/19 08:35:01;;;;;;;0.00;0.00;;;;;;;;;;5059838;28;20024;-71
2021/04/19 08:37:27;;;;;;;0.10;0.10;;;;;;;;;;5062054;28;20040;-71
2021/04/19 08:39:53;;;;;;;0.10;0.10;;;;;;;;;;5060156;28;20042;-71
2021/04/19 08:42:18;;;;;;;0.10;0.10;;;;;;;;;;5041138;28;20616;-70
2021/04/19 08:44:43;;;;;;;0.10;0.10;;;;;;;;;;5050864;28;20267;-71
2021/04/19 08:47:09;;;;;;;0.10;0.10;;;;;;;;;;5060908;28;20024;-70
2021/04/19 08:49:34;;;;;;;0.10;0.10;;;;;;;;;;5063825;28;20546;-70
2021/04/19 08:52:00;;;;;;;0.10;0.10;;;;;;;;;;5059947;28;20017;-71
2021/04/19 08:54:25;;;;;;;0.10;0.10;;;;;;;;;;5044643;28;20031;-70
2021/04/19 08:56:50;;;;;;;0.10;0.10;;;;;;;;;;5045452;28;20047;-71
2021/04/19 08:59:16;;;;;;;0.10;0.10;;;;;;;;;;5043482;28;20063;-70
2021/04/19 09:01:41;;;;;;;0.10;0.10;;;;;;;;;;5061805;28;20051;-72
2021/04/19 09:04:07;;;;;;;0.10;0.10;;;;;;;;;;5042157;28;20032;-69
2021/04/19 09:06:59;;;;;;;0.00;0.00;;;;;;;;;;5059656;28;20031;-69
2021/04/19 09:09:38;;;;;;;0.10;0.10;;;;;;;;;;5059234;28;20033;-70
2021/04/19 09:12:09;;;;;;;0.10;0.10;;;;;;;;;;5057600;28;20571;-70
2021/04/19 09:14:35;;;;;;;0.03;0.03;;;;;;;;;;5058285;28;20037;-69
2021/04/19 09:17:01;;;;;;;0.03;0.03;;;;;;;;;;5045391;28;20090;-69
2021/04/19 09:19:26;;;;;;;0.00;0.00;;;;;;;;;;5044293;28;20020;-69
2021/04/19 09:21:51;;;;;;;0.10;0.10;;;;;;;;;;5057328;28;20053;-69
2021/04/19 09:24:17;;;;;;;0.00;0.00;;;;;;;;;;5050465;28;20082;-69
2021/04/19 09:26:47;;;;;;;0.00;0.00;;;;;;;;;;5054228;28;20755;-70
2021/04/19 09:29:42;;;;;;;0.10;0.10;;;;;;;;;;5045500;28;20025;-69
2021/04/19 09:32:07;;;;;;;0.00;0.00;;;;;;;;;;5052371;28;20040;-70
2021/04/19 09:34:36;;;;;;;0.00;0.00;;;;;;;;;;5042850;28;20021;-69
2021/04/19 09:37:02;;;;;;;0.00;0.00;;;;;;;;;;5054227;28;20021;-69
2021/04/19 09:39:42;;;;;;;0.00;0.00;;;;;;;;;;5040126;28;20051;-69
2021/04/19 09:42:07;;;;;;;0.00;0.00;;;;;;;;;;5054943;28;20111;-69
2021/04/19 09:44:33;;;;;;;0.00;0.00;;;;;;;;;;5059082;28;20418;-70
2021/04/19 09:46:58;;;;;;;0.00;0.00;;;;;;;;;;5039633;28;20035;-69
2021/04/19 09:49:23;;;;;;;0.00;0.00;;;;;;;;;;5062239;28;20092;-70
2021/04/19 09:51:48;;;;;;;0.00;0.00;;;;;;;;;;5043025;28;20466;-70
2021/04/19 09:54:14;;;;;;;0.08;0.08;;;;;;;;;;5057492;28;20287;-70
2021/04/19 09:56:57;;;;;;;0.00;0.00;;;;;;;;;;5060384;28;20021;-70
2021/04/19 09:59:23;;;;;;;0.00;0.00;;;;;;;;;;5046004;28;20023;-70
2021/04/19 10:01:49;;;;;;;0.00;0.00;;;;;;;;;;5063190;28;20103;-70
2021/04/19 10:04:15;;;;;;;0.00;0.00;;;;;;;;;;5054518;28;20108;-70
2021/04/19 10:06:43;;;;;;;0.00;0.00;;;;;;;;;;5056640;28;20381;-70
2021/04/19 10:09:12;;;;;;;0.00;0.00;;;;;;;;;;5038625;28;20313;-69
2021/04/19 10:11:44;;;;;;;0.00;0.00;;;;;;;;;;5035808;28;20433;-70
2021/04/19 10:14:10;;;;;;;0.00;0.00;;;;;;;;;;5054799;28;20021;-70
2021/04/19 10:16:39;;;;;;;0.00;0.00;;;;;;;;;;5038963;28;20012;-69
2021/04/19 10:19:04;;;;;;;0.00;0.00;;;;;;;;;;5039576;28;20024;-70
2021/04/19 10:21:30;;;;;;;0.00;0.00;;;;;;;;;;5058001;28;20466;-70
2021/04/19 10:23:55;;;;;;;0.00;0.00;;;;;;;;;;5056919;28;20748;-69
2021/04/19 10:26:41;;;;;;;0.00;0.00;;;;;;;;;;5057057;28;20016;-69
2021/04/19 10:29:09;;;;;;;0.00;0.00;;;;;;;;;;5057817;28;20037;-70
2021/04/19 10:31:34;;;;;;;0.00;0.00;;;;;;;;;;5054028;28;20020;-69
2021/04/19 10:34:00;;;;;;;0.00;0.00;;;;;;;;;;5038994;28;20476;-69
2021/04/19 10:36:26;;;;;;;0.00;0.00;;;;;;;;;;5041730;28;20032;-70
2021/04/19 10:38:55;;;;;;;0.00;0.00;;;;;;;;;;5056088;28;20100;-70
2021/04/19 10:41:30;;;;;;;0.00;0.00;;;;;;;;;;5057486;28;20024;-70
2021/04/19 10:43:56;;;;;;;0.00;0.00;;;;;;;;;;5041603;28;20624;-70
2021/04/19 10:46:28;;;;;;;0.00;0.00;;;;;;;;;;5055796;28;20040;-70
2021/04/19 10:48:55;;;;;;;0.00;0.00;;;;;;;;;;5043943;28;20033;-70
2021/04/19 10:51:22;;;;;;;0.00;0.00;;;;;;;;;;5061000;28;20120;-70
2021/04/19 10:53:47;;;;;;;0.00;0.00;;;;;;;;;;5063883;28;20057;-70
2021/04/19 10:56:15;;;;;;;0.00;0.00;;;;;;;;;;5061137;28;20044;-70
2021/04/19 10:58:40;;;;;;;0.00;0.00;;;;;;;;;;5063498;28;20017;-70
2021/04/19 11:01:06;;;;;;;0.00;0.00;;;;;;;;;;5048219;28;20865;-70
2021/04/19 11:03:35;;;;;;;0.00;0.00;;;;;;;;;;5062995;28;20032;-70
2021/04/19 11:06:04;;;;;;;0.00;0.00;;;;;;;;;;5063466;28;20020;-70
2021/04/19 11:08:48;;;;;;;0.00;0.00;;;;;;;;;;5062939;28;20028;-71
2021/04/19 11:11:43;;;;;;;0.00;0.00;;;;;;;;;;5063942;28;20469;-71
2021/04/19 11:14:11;;;;;;;0.00;0.00;;;;;;;;;;5048200;28;20037;-71
2021/04/19 11:16:36;;;;;;;0.00;0.00;;;;;;;;;;5061542;28;20077;-71
2021/04/19 11:19:03;;;;;;;0.00;0.00;;;;;;;;;;5046084;28;20028;-71
2021/04/19 11:21:29;;;;;;;0.00;0.00;;;;;;;;;;5062365;28;20036;-71
2021/04/19 11:24:11;;;;;;;0.00;0.00;;;;;;;;;;5047485;28;20029;-71
2021/04/19 11:26:37;;;;;;;0.00;0.00;;;;;;;;;;5060697;28;20029;-71
2021/04/19 11:29:02;;;;;;;0.00;0.00;;;;;;;;;;5066645;28;20050;-71
2021/04/19 11:31:29;;;;;;;0.00;0.00;;;;;;;;;;5050947;28;20020;-70
2021/04/19 11:34:11;;;;;;;0.00;0.00;;;;;;;;;;5066690;28;20029;-71
2021/04/19 11:36:39;;;;;;;0.00;0.00;;;;;;;;;;5084012;28;20080;-70
2021/04/19 11:39:14;;;;;;;0.00;0.00;;;;;;;;;;5062646;28;20047;-70
2021/04/19 11:41:40;;;;;;;0.00;0.00;;;;;;;;;;5055625;28;20372;-72
2021/04/19 11:44:05;;;;;;;0.00;0.00;;;;;;;;;;5065284;28;20032;-73
2021/04/19 11:46:30;;;;;;;0.00;0.00;;;;;;;;;;5063233;28;20035;-72
2021/04/19 11:48:56;;;;;;;0.00;0.00;;;;;;;;;;5059539;28;20456;-70
2021/04/19 11:51:22;;;;;;;0.00;0.00;;;;;;;;;;5066746;28;20048;-71
2021/04/19 11:53:47;;;;;;;0.00;0.00;;;;;;;;;;5045333;28;20053;-71
2021/04/19 11:56:13;;;;;;;0.00;0.00;;;;;;;;;;5041708;28;20605;-71
2021/04/19 11:58:42;;;;;;;0.00;0.00;;;;;;;;;;5062881;28;20063;-71
2021/04/19 12:01:07;;;;;;;0.00;0.00;;;;;;;;;;5059034;28;20027;-71
2021/04/19 12:03:32;;;;;;;0.00;0.00;;;;;;;;;;5061174;28;20016;-70
2021/04/19 12:05:58;;;;;;;0.10;0.10;;;;;;;;;;5057640;28;20031;-71
2021/04/19 12:08:23;;;;;;;0.00;0.00;;;;;;;;;;5046051;28;20028;-70
2021/04/19 12:10:48;;;;;;;0.00;0.00;;;;;;;;;;5059117;28;20390;-70
2021/04/19 12:13:14;;;;;;;0.00;0.00;;;;;;;;;;5062942;28;20423;-70
2021/04/19 12:15:40;;;;;;;0.00;0.00;;;;;;;;;;5062487;28;20389;-70
2021/04/19 12:18:05;;;;;;;0.00;0.00;;;;;;;;;;5060796;28;20029;-70
2021/04/19 12:20:30;;;;;;;0.00;0.00;;;;;;;;;;5064441;28;20020;-71
2021/04/19 12:22:56;;;;;;;0.00;0.00;;;;;;;;;;5045103;28;20031;-70
2021/04/19 12:25:21;;;;;;;0.00;0.00;;;;;;;;;;5045791;28;20271;-70
2021/04/19 12:27:46;;;;;;;0.00;0.00;;;;;;;;;;5043959;28;20028;-70
2021/04/19 12:30:12;;;;;;;0.00;0.00;;;;;;;;;;5061519;28;20298;-70
2021/04/19 12:32:37;;;;;;;0.00;0.00;;;;;;;;;;5046056;28;20830;-70
2021/04/19 12:35:02;;;;;;;0.00;0.00;;;;;;;;;;5047327;28;20021;-70
2021/04/19 12:37:27;;;;;;;0.00;0.00;;;;;;;;;;5058865;28;20103;-70
2021/04/19 12:39:52;;;;;;;0.00;0.00;;;;;;;;;;5058635;28;20048;-70
2021/04/19 12:42:18;;;;;;;0.00;0.00;;;;;;;;;;5040650;28;20351;-70
2021/04/19 12:44:43;;;;;;;0.00;0.00;;;;;;;;;;5062489;28;20751;-70
2021/04/19 12:47:08;;;;;;;0.00;0.00;;;;;;;;;;5044316;28;20328;-71
2021/04/19 12:49:36;;;;;;;0.00;0.00;;;;;;;;;;5060066;28;20287;-70
2021/04/19 12:52:01;;;;;;;0.00;0.00;;;;;;;;;;5061224;28;20746;-70
2021/04/19 12:54:26;;;;;;;0.00;0.00;;;;;;;;;;5061044;28;20020;-70
2021/04/19 12:56:51;;;;;;;0.00;0.00;;;;;;;;;;5059612;28;20370;-70
2021/04/19 12:59:16;;;;;;;0.00;0.00;;;;;;;;;;5057871;28;20082;-70
2021/04/19 13:01:43;;;;;;;0.00;0.00;;;;;;;;;;5060305;28;20640;-71
2021/04/19 13:04:13;;;;;;;0.00;0.00;;;;;;;;;;5060194;28;20051;-71
2021/04/19 13:06:38;;;;;;;0.00;0.00;;;;;;;;;;5061380;28;20048;-70
2021/04/19 13:09:03;;;;;;;0.00;0.00;;;;;;;;;;5060672;28;20052;-71
2021/04/19 13:11:31;;;;;;;0.00;0.00;;;;;;;;;;5061676;28;20620;-70
2021/04/19 13:13:57;;;;;;;0.10;0.00;;;;;;;;;;5062070;28;20017;-70
2021/04/19 13:16:22;;;;;;;0.00;0.00;;;;;;;;;;5061991;28;20085;-70
2021/04/19 13:18:47;;;;;;;0.00;0.00;;;;;;;;;;5042437;28;20323;-69
2021/04/19 13:21:12;;;;;;;0.00;0.00;;;;;;;;;;5062945;28;20021;-70
2021/04/19 13:23:38;;;;;;;0.00;0.00;;;;;;;;;;5059784;28;20043;-70
2021/04/19 13:26:03;;;;;;;0.00;0.00;;;;;;;;;;5059830;28;20732;-70
2021/04/19 13:28:28;;;;;;;0.00;0.00;;;;;;;;;;5063885;28;20031;-70
2021/04/19 13:30:53;;;;;;;0.00;0.00;;;;;;;;;;5060481;28;20040;-71
2021/04/19 13:33:18;;;;;;;0.00;0.00;;;;;;;;;;5061824;28;20032;-70
2021/04/19 13:35:44;;;;;;;0.00;0.00;;;;;;;;;;5060897;28;20282;-71
2021/04/19 13:38:09;;;;;;;0.00;0.00;;;;;;;;;;5062324;28;20628;-71
2021/04/19 13:40:34;;;;;;;0.00;0.00;;;;;;;;;;5056729;28;20017;-69
2021/04/19 13:42:59;;;;;;;0.00;0.00;;;;;;;;;;5062410;28;20675;-70
2021/04/19 13:45:26;;;;;;;0.00;0.00;;;;;;;;;;5042100;28;20727;-70
2021/04/19 13:47:52;;;;;;;0.00;0.00;;;;;;;;;;5059863;28;20624;-70
2021/04/19 13:50:17;;;;;;;0.00;0.00;;;;;;;;;;5059253;28;20021;-70
2021/04/19 13:52:44;;;;;;;0.00;0.00;;;;;;;;;;5059497;28;20024;-70
2021/04/19 13:55:09;;;;;;;0.00;0.00;;;;;;;;;;5059767;28;20027;-70
2021/04/19 13:57:34;;;;;;;0.00;0.00;;;;;;;;;;5060470;28;20008;-70
2021/04/19 13:59:59;;;;;;;0.00;0.00;;;;;;;;;;5056981;28;20021;-70
2021/04/19 14:02:26;;;;;;;0.00;0.00;;;;;;;;;;5062825;28;20474;-70
2021/04/19 14:04:52;;;;;;;0.00;0.00;;;;;;;;;;5044682;28;20036;-70
2021/04/19 14:07:17;;;;;;;0.00;0.00;;;;;;;;;;5058389;28;20021;-70
2021/04/19 14:09:43;;;;;;;0.00;0.00;;;;;;;;;;5058061;28;20032;-70
2021/04/19 14:12:08;;;;;;;0.00;0.00;;;;;;;;;;5042909;28;20329;-70
2021/04/19 14:14:33;;;;;;;0.00;0.00;;;;;;;;;;5061671;28;20282;-70
2021/04/19 14:16:58;;;;;;;0.00;0.00;;;;;;;;;;5061620;28;20036;-70
2021/04/19 14:19:24;;;;;;;0.00;0.00;;;;;;;;;;5058970;28;20025;-71
2021/04/19 14:21:49;;;;;;;0.00;0.00;;;;;;;;;;5046110;28;20278;-70
2021/04/19 14:24:15;;;;;;;0.00;0.00;;;;;;;;;;5042456;28;20022;-70
2021/04/19 14:26:41;;;;;;;0.00;0.00;;;;;;;;;;5060365;28;20025;-70
2021/04/19 14:29:09;;;;;;;0.00;0.00;;;;;;;;;;5042077;28;20373;-70
2021/04/19 14:31:37;;;;;;;0.00;0.00;;;;;;;;;;5060833;28;20256;-70
2021/04/19 14:34:03;;;;;;;0.00;0.00;;;;;;;;;;5057697;28;20029;-70
2021/04/19 14:36:28;;;;;;;0.00;0.00;;;;;;;;;;5041510;28;20028;-69
2021/04/19 14:38:54;;;;;;;0.00;0.00;;;;;;;;;;5058292;28;20031;-70
2021/04/19 14:41:20;;;;;;;0.00;0.00;;;;;;;;;;5060006;28;20028;-70